createdAt,value
2022-09-06T06:54:03.925Z,952
2022-09-06T06:55:10.085Z,952
2022-09-06T06:56:16.270Z,952
2022-09-06T06:57:22.432Z,952
2022-09-06T06:58:28.600Z,951.9
2022-09-06T06:59:34.764Z,951.9
2022-09-06T07:00:40.946Z,951.9
2022-09-06T07:01:47.119Z,952
2022-09-06T07:02:53.271Z,952
2022-09-06T07:03:59.467Z,952
2022-09-06T07:05:05.620Z,952
2022-09-06T07:06:11.779Z,952
2022-09-06T07:07:17.966Z,952
2022-09-06T07:08:24.137Z,952
2022-09-06T07:09:30.288Z,952
2022-09-06T07:10:36.460Z,952
2022-09-06T07:11:42.622Z,952
2022-09-06T07:12:48.798Z,952
2022-09-06T07:13:54.980Z,952
2022-09-06T07:15:01.129Z,952
2022-09-06T07:16:06.330Z,952
2022-09-06T07:17:11.547Z,952
2022-09-06T07:18:17.679Z,952
2022-09-06T07:19:23.859Z,952
2022-09-06T07:20:30.039Z,952
2022-09-06T07:21:36.208Z,952
2022-09-06T07:22:42.373Z,951.9
2022-09-06T07:23:48.554Z,951.9
2022-09-06T07:24:54.708Z,951.9
2022-09-06T07:26:00.863Z,951.9
2022-09-06T07:27:07.041Z,951.9
2022-09-06T07:28:13.222Z,952
2022-09-06T07:29:19.393Z,952
2022-09-06T07:30:25.562Z,952.1
2022-09-06T07:31:30.747Z,952.1
2022-09-06T07:32:36.919Z,952.1
2022-09-06T07:33:43.076Z,952.1
2022-09-06T07:34:49.265Z,952
2022-09-06T07:35:55.411Z,952.1
2022-09-06T07:37:01.595Z,952.1
2022-09-06T07:38:07.764Z,952.1
2022-09-06T07:39:12.942Z,952.1
2022-09-06T07:40:18.136Z,952.1
2022-09-06T07:41:24.323Z,952.1
2022-09-06T07:42:30.471Z,952.1
2022-09-06T07:43:36.638Z,952.1
2022-09-06T07:44:42.821Z,952.1
2022-09-06T07:45:48.984Z,952.1
2022-09-06T07:46:55.159Z,952.1
2022-09-06T07:48:01.328Z,952.1
2022-09-06T07:49:07.508Z,952.1
2022-09-06T07:50:13.662Z,952.1
2022-09-06T07:51:19.830Z,952.2
2022-09-06T07:52:26.009Z,952.2
2022-09-06T07:53:32.166Z,952.2
2022-09-06T07:54:37.348Z,952.2
2022-09-06T07:55:43.519Z,952.2
2022-09-06T07:56:49.695Z,952.3
2022-09-06T07:57:55.859Z,952.3
2022-09-06T07:59:02.026Z,952.3
2022-09-06T08:00:08.188Z,952.3
2022-09-06T08:01:14.371Z,952.3
2022-09-06T08:02:19.567Z,952.3
2022-09-06T08:03:24.761Z,952.4
2022-09-06T08:04:29.984Z,952.4
2022-09-06T08:05:35.127Z,952.4
2022-09-06T08:06:41.301Z,952.5
2022-09-06T08:07:47.528Z,952.6
2022-09-06T08:08:53.702Z,952.6
2022-09-06T08:09:59.807Z,952.6
2022-09-06T08:11:05.975Z,952.6
2022-09-06T08:12:12.154Z,952.5
2022-09-06T08:13:18.330Z,952.6
2022-09-06T08:14:24.487Z,952.6
2022-09-06T08:15:30.653Z,952.6
2022-09-06T08:16:36.841Z,952.5
2022-09-06T08:17:42.987Z,952.6
2022-09-06T08:18:49.158Z,952.5
2022-09-06T08:19:54.362Z,952.6
2022-09-06T08:21:00.526Z,952.6
2022-09-06T08:22:06.681Z,952.6
2022-09-06T08:23:12.866Z,952.6
2022-09-06T08:24:19.025Z,952.7
2022-09-06T08:25:25.188Z,952.7
2022-09-06T08:26:31.360Z,952.7
2022-09-06T08:27:36.565Z,952.8
2022-09-06T08:28:41.744Z,952.8
2022-09-06T08:29:46.951Z,952.8
2022-09-06T08:30:52.165Z,952.8
2022-09-06T08:31:58.333Z,952.9
2022-09-06T08:33:04.461Z,952.9
2022-09-06T08:34:10.630Z,952.9
2022-09-06T08:35:16.814Z,952.9
2022-09-06T08:36:22.971Z,953
2022-09-06T08:37:29.138Z,953
2022-09-06T08:38:35.300Z,953
2022-09-06T08:39:41.472Z,953.1
2022-09-06T08:40:47.662Z,953.1
2022-09-06T08:41:53.827Z,953.1
2022-09-06T08:42:59.993Z,953
2022-09-06T08:44:06.178Z,952.9
2022-09-06T08:45:11.357Z,952.9
2022-09-06T08:46:17.514Z,952.8
2022-09-06T08:47:23.681Z,952.8
2022-09-06T08:48:29.848Z,952.8
2022-09-06T08:49:36.052Z,952.8
2022-09-06T08:50:42.196Z,952.8
2022-09-06T08:51:48.356Z,952.9
2022-09-06T08:52:53.558Z,952.9
2022-09-06T08:53:58.747Z,953
2022-09-06T08:55:04.917Z,952.9
2022-09-06T08:56:11.072Z,953
2022-09-06T08:57:17.265Z,952.9
2022-09-06T08:58:23.413Z,952.9
2022-09-06T08:59:29.599Z,952.9
2022-09-06T09:00:35.751Z,952.9
2022-09-06T09:01:41.926Z,952.8
2022-09-06T09:02:48.096Z,952.8
2022-09-06T09:03:54.255Z,952.8
2022-09-06T09:05:00.457Z,952.8
2022-09-06T09:06:06.619Z,952.8
2022-09-06T09:07:12.778Z,952.8
2022-09-06T09:08:17.950Z,952.8
2022-09-06T09:09:24.130Z,952.8
2022-09-06T09:10:30.312Z,952.7
2022-09-06T09:11:36.467Z,952.7
2022-09-06T09:12:42.637Z,952.6
2022-09-06T09:13:48.827Z,952.5
2022-09-06T09:14:54.984Z,952.5
2022-09-06T09:16:00.169Z,952.4
2022-09-06T09:17:05.354Z,952.4
2022-09-06T09:18:10.558Z,952.4
2022-09-06T09:19:15.736Z,952.4
2022-09-06T09:20:20.945Z,952.3
2022-09-06T09:21:26.127Z,952.3
2022-09-06T09:22:32.294Z,952.3
2022-09-06T09:23:38.456Z,952.3
2022-09-06T09:24:44.633Z,952.2
2022-09-06T09:25:50.792Z,952.2
2022-09-06T09:26:56.967Z,952.2
2022-09-06T09:28:03.141Z,952.2
2022-09-06T09:29:09.300Z,952.1
2022-09-06T09:30:15.462Z,952.1
2022-09-06T09:31:21.642Z,952.1
2022-09-06T09:32:27.815Z,952.1
2022-09-06T09:33:33.974Z,952.1
2022-09-06T09:34:40.153Z,952.1
2022-09-06T09:35:45.346Z,952.1
2022-09-06T09:36:51.497Z,952.1
2022-09-06T09:37:57.680Z,952.1
2022-09-06T09:39:03.855Z,952.1
2022-09-06T09:40:10.008Z,952.1
2022-09-06T09:41:16.176Z,952
2022-09-06T09:42:22.357Z,952
2022-09-06T09:43:27.556Z,951.9
2022-09-06T09:44:32.738Z,951.9
2022-09-06T09:45:37.938Z,951.9
2022-09-06T09:46:43.104Z,951.9
2022-09-06T09:47:49.288Z,951.9
2022-09-06T09:48:55.488Z,951.9
2022-09-06T09:50:01.635Z,951.9
2022-09-06T09:51:07.812Z,951.9
2022-09-06T09:52:13.961Z,951.9
2022-09-06T09:53:20.136Z,951.9
2022-09-06T09:54:26.304Z,951.9
2022-09-06T09:55:32.483Z,951.9
2022-09-06T09:56:38.643Z,951.8
2022-09-06T09:57:44.800Z,951.8
2022-09-06T09:58:50.973Z,951.8
2022-09-06T09:59:57.150Z,951.8
2022-09-06T10:01:02.348Z,951.8
2022-09-06T10:02:08.511Z,951.9
2022-09-06T10:03:14.688Z,951.9
2022-09-06T10:04:20.845Z,951.8
2022-09-06T10:05:27.007Z,951.8
2022-09-06T10:06:33.199Z,951.7
2022-09-06T10:07:39.356Z,951.8
2022-09-06T10:08:44.557Z,951.8
2022-09-06T10:09:49.731Z,951.7
2022-09-06T10:10:55.892Z,951.8
2022-09-06T10:12:02.090Z,951.7
2022-09-06T10:13:08.238Z,951.7
2022-09-06T10:14:14.407Z,951.7
2022-09-06T10:15:20.582Z,951.7
2022-09-06T10:16:26.755Z,951.7
2022-09-06T10:17:31.931Z,951.7
2022-09-06T10:18:38.111Z,951.7
2022-09-06T10:19:44.275Z,951.7
2022-09-06T10:20:50.442Z,951.7
2022-09-06T10:21:56.617Z,951.6
2022-09-06T10:23:02.857Z,951.6
2022-09-06T10:24:08.956Z,951.6
2022-09-06T10:25:15.126Z,951.6
2022-09-06T10:26:21.296Z,951.6
2022-09-06T10:27:27.466Z,951.6
2022-09-06T10:28:33.625Z,951.6
2022-09-06T10:29:39.818Z,951.6
2022-09-06T10:30:45.975Z,951.6
2022-09-06T10:31:51.180Z,951.5
2022-09-06T10:32:56.360Z,951.5
2022-09-06T10:34:01.554Z,951.5
2022-09-06T10:35:06.752Z,951.5
2022-09-06T10:36:11.939Z,951.5
2022-09-06T10:37:17.156Z,951.4
2022-09-06T10:38:22.328Z,951.4
2022-09-06T10:39:27.505Z,951.4
2022-09-06T10:40:33.680Z,951.4
2022-09-06T10:41:39.837Z,951.4
2022-09-06T10:42:46.012Z,951.4
2022-09-06T10:43:52.186Z,951.3
2022-09-06T10:44:58.353Z,951.3
2022-09-06T10:46:04.526Z,951.4
2022-09-06T10:47:10.689Z,951.4
2022-09-06T10:48:16.867Z,951.3
2022-09-06T10:49:23.020Z,951.3
2022-09-06T10:50:29.191Z,951.3
2022-09-06T10:51:35.372Z,951.4
2022-09-06T10:52:41.548Z,951.4
2022-09-06T10:53:46.771Z,951.5
2022-09-06T10:54:52.893Z,951.5
2022-09-06T10:55:59.068Z,951.5
2022-09-06T10:57:05.232Z,951.4
2022-09-06T10:58:11.400Z,951.4
2022-09-06T10:59:17.560Z,951.4
2022-09-06T11:00:23.756Z,951.4
2022-09-06T11:01:28.937Z,951.5
2022-09-06T11:02:34.120Z,951.4
2022-09-06T11:03:40.288Z,951.4
2022-09-06T11:04:46.461Z,951.4
2022-09-06T11:05:52.638Z,951.4
2022-09-06T11:06:58.797Z,951.4
2022-09-06T11:08:04.981Z,951.4
2022-09-06T11:09:11.153Z,951.4
2022-09-06T11:10:17.299Z,951.5
2022-09-06T11:11:23.473Z,951.4
2022-09-06T11:12:29.650Z,951.4
2022-09-06T11:13:35.813Z,951.4
2022-09-06T11:14:41.983Z,951.5
2022-09-06T11:15:48.160Z,951.4
2022-09-06T11:16:53.351Z,951.4
2022-09-06T11:17:59.543Z,951.4
2022-09-06T11:19:05.686Z,951.5
2022-09-06T11:20:11.846Z,951.4
2022-09-06T11:21:18.026Z,951.5
2022-09-06T11:22:24.181Z,951.5
2022-09-06T11:23:30.359Z,951.5
2022-09-06T11:24:35.562Z,951.4
2022-09-06T11:25:40.740Z,951.4
2022-09-06T11:26:45.932Z,951.4
2022-09-06T11:27:51.133Z,951.4
2022-09-06T11:28:57.294Z,951.4
2022-09-06T11:30:03.467Z,951.4
2022-09-06T11:31:09.647Z,951.4
2022-09-06T11:32:15.798Z,951.4
2022-09-06T11:33:21.977Z,951.4
2022-09-06T11:34:28.136Z,951.5
2022-09-06T11:35:34.353Z,951.5
2022-09-06T11:36:40.468Z,951.4
2022-09-06T11:37:46.640Z,951.4
2022-09-06T11:38:52.810Z,951.4
2022-09-06T11:39:58.992Z,951.4
2022-09-06T11:41:05.158Z,951.4
2022-09-06T11:42:10.365Z,951.4
2022-09-06T11:44:22.695Z,951.5
2022-09-06T11:45:28.850Z,951.5
2022-09-06T11:46:35.014Z,951.5
2022-09-06T11:47:41.219Z,951.6
2022-09-06T11:48:47.359Z,951.6
2022-09-06T11:49:53.547Z,951.6
2022-09-06T11:50:58.728Z,951.6
2022-09-06T11:52:03.914Z,951.6
2022-09-06T11:53:09.110Z,951.6
2022-09-06T11:54:14.297Z,951.6
2022-09-06T11:55:20.459Z,951.5
2022-09-06T11:56:26.626Z,951.5
2022-09-06T11:57:32.808Z,951.5
2022-09-06T11:58:38.994Z,951.5
2022-09-06T11:59:45.132Z,951.5
2022-09-06T12:00:51.345Z,951.6
2022-09-06T12:03:03.662Z,951.6
2022-09-06T12:04:09.824Z,951.6
2022-09-06T12:05:16.001Z,951.6
2022-09-06T12:06:22.162Z,951.6
2022-09-06T12:07:28.331Z,951.7
2022-09-06T12:08:33.520Z,951.7
2022-09-06T12:09:39.694Z,951.7
2022-09-06T12:10:45.861Z,951.6
2022-09-06T12:11:52.012Z,951.6
2022-09-06T12:12:58.187Z,951.6
2022-09-06T12:14:04.373Z,951.7
2022-09-06T12:15:10.537Z,951.7
2022-09-06T12:17:22.875Z,951.7
2022-09-06T12:18:28.080Z,951.7
2022-09-06T12:19:33.246Z,951.7
2022-09-06T12:20:38.443Z,951.7
2022-09-06T12:21:43.625Z,951.7
2022-09-06T12:22:49.813Z,951.7
2022-09-06T12:25:02.152Z,951.7
2022-09-06T12:26:08.299Z,951.6
2022-09-06T12:27:14.479Z,951.7
2022-09-06T12:28:20.642Z,951.6
2022-09-06T12:29:26.812Z,951.6
2022-09-06T12:30:32.996Z,951.6
2022-09-06T12:31:39.157Z,951.6
2022-09-06T12:32:45.334Z,951.5
2022-09-06T12:33:51.487Z,951.5
2022-09-06T12:34:57.661Z,951.5
2022-09-06T12:36:02.858Z,951.5
2022-09-06T12:37:09.017Z,951.5
2022-09-06T12:38:15.196Z,951.5
2022-09-06T12:39:21.355Z,951.5
2022-09-06T12:40:27.518Z,951.5
2022-09-06T12:41:33.703Z,951.5
2022-09-06T12:42:39.869Z,951.5
2022-09-06T12:43:46.033Z,951.5
2022-09-06T12:44:51.222Z,951.4
2022-09-06T12:45:56.409Z,951.4
2022-09-06T12:47:02.582Z,951.4
2022-09-06T12:48:07.779Z,951.4
2022-09-06T12:49:12.982Z,951.3
2022-09-06T12:51:24.336Z,951.3
2022-09-06T12:52:29.542Z,951.3
2022-09-06T12:53:34.721Z,951.2
2022-09-06T12:54:40.882Z,951.2
2022-09-06T12:55:47.050Z,951.2
2022-09-06T12:56:53.224Z,951.2
2022-09-06T12:57:59.399Z,951.2
2022-09-06T12:59:05.559Z,951.1
2022-09-06T13:00:11.726Z,951.1
2022-09-06T13:01:17.891Z,951.1
2022-09-06T13:02:24.079Z,951.1
2022-09-06T13:03:30.233Z,951
2022-09-06T13:04:36.413Z,951
2022-09-06T13:05:42.576Z,951
2022-09-06T13:06:48.756Z,951
2022-09-06T13:07:53.949Z,951
2022-09-06T13:09:00.114Z,951
2022-09-06T13:10:06.278Z,951
2022-09-06T13:11:12.454Z,951
2022-09-06T13:12:18.617Z,950.9
2022-09-06T13:13:24.780Z,950.9
2022-09-06T13:14:30.968Z,950.8
2022-09-06T13:15:36.156Z,950.8
2022-09-06T13:16:41.326Z,950.8
2022-09-06T13:17:46.534Z,950.8
2022-09-06T13:18:51.739Z,950.8
2022-09-06T13:19:57.901Z,950.8
2022-09-06T13:21:04.070Z,950.8
2022-09-06T13:22:10.217Z,950.8
2022-09-06T13:23:16.389Z,950.7
2022-09-06T13:24:22.564Z,950.7
2022-09-06T13:25:28.722Z,950.7
2022-09-06T13:26:34.915Z,950.7
2022-09-06T13:27:41.066Z,950.7
2022-09-06T13:28:47.250Z,950.7
2022-09-06T13:29:53.408Z,950.6
2022-09-06T13:30:59.574Z,950.6
2022-09-06T13:32:05.760Z,950.6
2022-09-06T13:33:10.945Z,950.7
2022-09-06T13:34:17.106Z,950.7
2022-09-06T13:35:23.276Z,950.6
2022-09-06T13:36:29.454Z,950.6
2022-09-06T13:37:35.611Z,950.6
2022-09-06T13:38:41.794Z,950.6
2022-09-06T13:39:47.957Z,950.6
2022-09-06T13:40:53.158Z,950.7
2022-09-06T13:41:58.347Z,950.7
2022-09-06T13:43:04.509Z,950.7
2022-09-06T13:44:10.674Z,950.7
2022-09-06T13:45:16.845Z,950.7
2022-09-06T13:46:23.025Z,950.7
2022-09-06T13:47:29.183Z,950.7
2022-09-06T13:48:35.362Z,950.7
2022-09-06T13:49:41.525Z,950.7
2022-09-06T13:50:47.694Z,950.6
2022-09-06T13:51:53.876Z,950.7
2022-09-06T13:53:00.022Z,950.6
2022-09-06T13:54:06.196Z,950.6
2022-09-06T13:55:12.378Z,950.5
2022-09-06T13:56:17.555Z,950.5
2022-09-06T13:57:23.718Z,950.5
2022-09-06T13:58:28.923Z,950.4
2022-09-06T13:59:35.085Z,950.4
2022-09-06T14:00:41.270Z,950.4
2022-09-06T14:01:47.422Z,950.4
2022-09-06T14:02:53.607Z,950.4
2022-09-06T14:03:58.793Z,950.4
2022-09-06T14:05:03.984Z,950.4
2022-09-06T14:06:10.145Z,950.4
2022-09-06T14:07:16.312Z,950.4
2022-09-06T14:08:22.492Z,950.4
2022-09-06T14:09:28.653Z,950.4
2022-09-06T14:10:34.840Z,950.4
2022-09-06T14:11:41.002Z,950.4
2022-09-06T14:12:47.157Z,950.4
2022-09-06T14:13:53.344Z,950.4
2022-09-06T14:14:59.518Z,950.3
2022-09-06T14:16:05.681Z,950.3
2022-09-06T14:17:11.841Z,950.3
2022-09-06T14:18:18.014Z,950.3
2022-09-06T14:19:23.198Z,950.3
2022-09-06T14:20:29.362Z,950.3
2022-09-06T14:21:35.529Z,950.3
2022-09-06T14:22:41.705Z,950.2
2022-09-06T14:23:47.895Z,950.2
2022-09-06T14:24:54.065Z,950.3
2022-09-06T14:26:00.227Z,950.3
2022-09-06T14:27:05.428Z,950.3
2022-09-06T14:28:10.605Z,950.2
2022-09-06T14:29:15.795Z,950.2
2022-09-06T14:30:20.991Z,950.2
2022-09-06T14:31:26.191Z,950.2
2022-09-06T14:32:31.369Z,950.1
2022-09-06T14:33:37.534Z,950.1
2022-09-06T14:34:43.706Z,950.1
2022-09-06T14:35:49.870Z,950.1
2022-09-06T14:36:56.037Z,950.2
2022-09-06T14:38:02.225Z,950.2
2022-09-06T14:39:08.394Z,950.2
2022-09-06T14:40:14.548Z,950.2
2022-09-06T14:41:20.734Z,950.2
2022-09-06T14:42:26.889Z,950.2
2022-09-06T14:43:33.066Z,950.2
2022-09-06T14:44:39.230Z,950.2
2022-09-06T14:45:45.402Z,950.2
2022-09-06T14:46:50.576Z,950.2
2022-09-06T14:47:56.749Z,950.2
2022-09-06T14:49:02.919Z,950.2
2022-09-06T14:50:09.092Z,950.2
2022-09-06T14:51:15.264Z,950.2
2022-09-06T14:52:21.434Z,950.2
2022-09-06T14:53:27.601Z,950.2
2022-09-06T14:54:32.795Z,950.2
2022-09-06T14:55:37.982Z,950.3
2022-09-06T14:56:43.176Z,950.3
2022-09-06T14:57:48.360Z,950.2
2022-09-06T14:58:53.565Z,950.2
2022-09-06T14:59:58.744Z,950.1
2022-09-06T15:01:04.913Z,950.1
2022-09-06T15:02:11.079Z,950.2
2022-09-06T15:03:17.259Z,950.2
2022-09-06T15:04:23.410Z,950.1
2022-09-06T15:05:29.587Z,950.1
2022-09-06T15:06:35.804Z,950
2022-09-06T15:07:41.943Z,950
2022-09-06T15:08:48.095Z,950
2022-09-06T15:09:54.268Z,950
2022-09-06T15:11:00.446Z,950
2022-09-06T15:12:06.603Z,950
2022-09-06T15:13:12.790Z,950
2022-09-06T15:14:17.970Z,949.9
2022-09-06T15:15:24.129Z,950
2022-09-06T15:16:30.313Z,950
2022-09-06T15:17:36.480Z,950
2022-09-06T15:18:42.653Z,950
2022-09-06T15:19:48.804Z,950
2022-09-06T15:20:54.982Z,949.9
2022-09-06T15:22:00.171Z,949.9
2022-09-06T15:23:05.366Z,949.9
2022-09-06T15:24:11.545Z,949.8
2022-09-06T15:25:16.734Z,949.8
2022-09-06T15:26:21.952Z,949.8
2022-09-06T15:27:28.081Z,949.8
2022-09-06T15:28:34.248Z,949.8
2022-09-06T15:29:40.426Z,949.8
2022-09-06T15:30:46.626Z,949.8
2022-09-06T15:31:52.760Z,949.7
2022-09-06T15:32:58.932Z,949.8
2022-09-06T15:34:05.101Z,949.8
2022-09-06T15:35:11.276Z,949.8
2022-09-06T15:36:17.428Z,949.9
2022-09-06T15:37:23.613Z,949.9
2022-09-06T15:38:29.778Z,949.9
2022-09-06T15:39:35.942Z,949.9
2022-09-06T15:40:41.135Z,949.8
2022-09-06T15:41:47.294Z,949.8
2022-09-06T15:42:53.466Z,949.7
2022-09-06T15:43:59.642Z,949.6
2022-09-06T15:45:05.810Z,949.6
2022-09-06T15:46:11.975Z,949.5
2022-09-06T15:47:18.145Z,949.4
2022-09-06T15:48:23.337Z,949.4
2022-09-06T15:49:28.538Z,949.4
2022-09-06T15:50:34.685Z,949.3
2022-09-06T15:51:40.862Z,949.3
2022-09-06T15:52:47.045Z,949.3
2022-09-06T15:53:53.207Z,949.2
2022-09-06T15:54:59.381Z,949.2
2022-09-06T15:56:05.556Z,949.2
2022-09-06T15:57:11.710Z,949.1
2022-09-06T15:58:17.875Z,949.1
2022-09-06T15:59:24.054Z,949.1
2022-09-06T16:00:30.218Z,949.1
2022-09-06T16:01:36.395Z,949.1
2022-09-06T16:02:42.566Z,949.1
2022-09-06T16:03:47.750Z,949.2
2022-09-06T16:04:53.907Z,949.2
2022-09-06T16:06:00.099Z,949.2
2022-09-06T16:07:06.267Z,949.2
2022-09-06T16:08:12.432Z,949.2
2022-09-06T16:09:18.595Z,949.2
2022-09-06T16:10:24.757Z,949.1
2022-09-06T16:11:29.957Z,949.1
2022-09-06T16:12:35.167Z,949.1
2022-09-06T16:13:40.340Z,949
2022-09-06T16:14:45.530Z,949
2022-09-06T16:15:50.729Z,948.9
2022-09-06T16:16:55.908Z,949
2022-09-06T16:18:02.092Z,949
2022-09-06T16:19:07.286Z,949
2022-09-06T16:20:12.482Z,949
2022-09-06T16:21:18.638Z,949
2022-09-06T16:22:24.811Z,949
2022-09-06T16:23:30.981Z,949
2022-09-06T16:24:37.134Z,949
2022-09-06T16:25:43.308Z,949
2022-09-06T16:26:49.464Z,949
2022-09-06T16:27:55.653Z,949
2022-09-06T16:29:01.824Z,949
2022-09-06T16:30:07.992Z,949
2022-09-06T16:31:14.166Z,949.1
2022-09-06T16:32:20.319Z,949.1
2022-09-06T16:33:26.482Z,949.1
2022-09-06T16:34:31.694Z,949.1
2022-09-06T16:35:37.850Z,949.1
2022-09-06T16:36:44.032Z,949.1
2022-09-06T16:37:50.189Z,949
2022-09-06T16:38:56.366Z,949
2022-09-06T16:40:02.537Z,949
2022-09-06T16:41:08.690Z,949
2022-09-06T16:42:13.895Z,949
2022-09-06T16:43:19.073Z,949
2022-09-06T16:44:25.250Z,948.9
2022-09-06T16:45:31.416Z,948.9
2022-09-06T16:46:37.586Z,948.8
2022-09-06T16:47:43.751Z,948.8
2022-09-06T16:48:49.939Z,948.8
2022-09-06T16:49:56.083Z,948.9
2022-09-06T16:51:02.262Z,948.9
2022-09-06T16:52:08.421Z,948.9
2022-09-06T16:53:14.609Z,948.9
2022-09-06T16:54:20.769Z,948.9
2022-09-06T16:55:26.955Z,948.9
2022-09-06T16:56:33.133Z,948.9
2022-09-06T16:57:38.305Z,948.9
2022-09-06T16:58:44.456Z,948.9
2022-09-06T16:59:50.641Z,948.9
2022-09-06T17:00:56.805Z,948.9
2022-09-06T17:02:02.973Z,948.9
2022-09-06T17:03:09.150Z,948.9
2022-09-06T17:04:15.304Z,948.9
2022-09-06T17:05:20.500Z,948.9
2022-09-06T17:06:25.699Z,948.9
2022-09-06T17:07:30.880Z,948.9
2022-09-06T17:08:36.065Z,948.9
2022-09-06T17:09:42.244Z,948.9
2022-09-06T17:10:48.412Z,948.9
2022-09-06T17:11:54.595Z,948.8
2022-09-06T17:13:00.740Z,948.8
2022-09-06T17:14:06.923Z,948.8
2022-09-06T17:15:13.077Z,948.8
2022-09-06T17:16:19.269Z,948.9
2022-09-06T17:17:25.417Z,948.9
2022-09-06T17:18:31.591Z,948.9
2022-09-06T17:19:37.757Z,948.9
2022-09-06T17:20:43.947Z,948.9
2022-09-06T17:21:50.106Z,948.9
2022-09-06T17:22:55.285Z,948.9
2022-09-06T17:24:01.453Z,948.9
2022-09-06T17:25:07.625Z,948.9
2022-09-06T17:26:13.799Z,948.8
2022-09-06T17:27:19.975Z,948.8
2022-09-06T17:28:26.135Z,948.8
2022-09-06T17:29:32.322Z,948.8
2022-09-06T17:30:37.491Z,948.8
2022-09-06T17:31:42.691Z,948.8
2022-09-06T17:32:48.848Z,948.8
2022-09-06T17:33:55.032Z,948.8
2022-09-06T17:35:01.200Z,948.8
2022-09-06T17:36:07.367Z,948.8
2022-09-06T17:37:13.540Z,948.8
2022-09-06T17:38:19.711Z,948.8
2022-09-06T17:39:24.883Z,948.8
2022-09-06T17:40:31.054Z,948.8
2022-09-06T17:41:37.232Z,948.8
2022-09-06T17:42:43.402Z,948.8
2022-09-06T17:43:49.562Z,948.8
2022-09-06T17:44:55.747Z,948.8
2022-09-06T17:46:01.898Z,948.8
2022-09-06T17:47:08.095Z,948.7
2022-09-06T17:48:14.249Z,948.7
2022-09-06T17:49:20.426Z,948.7
2022-09-06T17:50:26.598Z,948.7
2022-09-06T17:51:32.741Z,948.7
2022-09-06T17:52:38.920Z,948.7
2022-09-06T17:53:44.128Z,948.7
2022-09-06T17:54:49.310Z,948.7
2022-09-06T17:55:54.523Z,948.7
2022-09-06T17:56:59.679Z,948.8
2022-09-06T17:58:05.863Z,948.8
2022-09-06T17:59:12.042Z,948.8
2022-09-06T18:00:18.203Z,948.8
2022-09-06T18:01:24.366Z,948.8
2022-09-06T18:02:30.552Z,948.7
2022-09-06T18:03:36.702Z,948.8
2022-09-06T18:04:42.871Z,948.8
2022-09-06T18:05:49.027Z,948.8
2022-09-06T18:06:55.211Z,948.8
2022-09-06T18:08:01.381Z,948.8
2022-09-06T18:09:07.541Z,948.8
2022-09-06T18:10:13.732Z,948.8
2022-09-06T18:11:18.910Z,948.8
2022-09-06T18:12:25.073Z,948.8
2022-09-06T18:13:31.260Z,948.9
2022-09-06T18:14:37.421Z,948.9
2022-09-06T18:15:43.582Z,948.9
2022-09-06T18:16:49.738Z,948.9
2022-09-06T18:17:55.917Z,948.9
2022-09-06T18:19:01.109Z,948.9
2022-09-06T18:20:06.310Z,948.9
2022-09-06T18:21:11.503Z,949
2022-09-06T18:22:16.680Z,949
2022-09-06T18:23:21.887Z,949
2022-09-06T18:24:27.067Z,949
2022-09-06T18:25:33.223Z,949
2022-09-06T18:26:39.393Z,949
2022-09-06T18:27:45.572Z,949
2022-09-06T18:28:51.745Z,949
2022-09-06T18:29:57.900Z,949
2022-09-06T18:31:04.077Z,949
2022-09-06T18:32:10.253Z,949
2022-09-06T18:33:16.406Z,949
2022-09-06T18:34:22.600Z,949
2022-09-06T18:35:28.754Z,949.1
2022-09-06T18:36:34.914Z,949
2022-09-06T18:37:40.128Z,949
2022-09-06T18:38:45.298Z,949.1
2022-09-06T18:39:50.487Z,949.1
2022-09-06T18:40:55.680Z,949.1
2022-09-06T18:42:01.847Z,949.1
2022-09-06T18:43:08.063Z,949
2022-09-06T18:44:14.235Z,949.1
2022-09-06T18:45:20.437Z,949.1
2022-09-06T18:46:26.520Z,949.1
2022-09-06T18:47:32.691Z,949.1
2022-09-06T18:48:38.909Z,949.1
2022-09-06T18:49:45.038Z,949.1
2022-09-06T18:50:51.200Z,949.1
2022-09-06T18:51:57.391Z,949.2
2022-09-06T18:53:03.557Z,949.2
2022-09-06T18:54:09.705Z,949.1
2022-09-06T18:55:14.911Z,949.2
2022-09-06T18:56:21.063Z,949.2
2022-09-06T18:57:27.274Z,949.2
2022-09-06T18:58:33.447Z,949.2
2022-09-06T18:59:39.639Z,949.3
2022-09-06T19:00:45.739Z,949.3
2022-09-06T19:01:51.945Z,949.2
2022-09-06T19:02:57.186Z,949.2
2022-09-06T19:04:02.303Z,949.2
2022-09-06T19:05:07.589Z,949.2
2022-09-06T19:06:12.688Z,949.2
2022-09-06T19:07:18.888Z,949.2
2022-09-06T19:08:25.024Z,949.1
2022-09-06T19:09:31.191Z,949.1
2022-09-06T19:10:37.352Z,949.1
2022-09-06T19:11:43.527Z,949.1
2022-09-06T19:12:49.689Z,949.1
2022-09-06T19:13:55.868Z,949.2
2022-09-06T19:15:02.048Z,949.2
2022-09-06T19:16:08.207Z,949.2
2022-09-06T19:17:14.364Z,949.2
2022-09-06T19:18:20.547Z,949.3
2022-09-06T19:19:26.711Z,949.2
2022-09-06T19:20:31.902Z,949.2
2022-09-06T19:21:38.054Z,949.2
2022-09-06T19:22:44.235Z,949.3
2022-09-06T19:23:50.399Z,949.3
2022-09-06T19:24:56.592Z,949.3
2022-09-06T19:26:02.747Z,949.3
2022-09-06T19:27:08.904Z,949.3
2022-09-06T19:28:14.125Z,949.3
2022-09-06T19:29:19.314Z,949.3
2022-09-06T19:30:25.488Z,949.3
2022-09-06T19:31:31.627Z,949.2
2022-09-06T19:32:37.808Z,949.2
2022-09-06T19:33:43.976Z,949.3
2022-09-06T19:34:50.148Z,949.3
2022-09-06T19:35:56.316Z,949.3
2022-09-06T19:37:02.475Z,949.3
2022-09-06T19:38:08.660Z,949.4
2022-09-06T19:39:14.856Z,949.4
2022-09-06T19:40:20.977Z,949.4
2022-09-06T19:41:27.148Z,949.4
2022-09-06T19:42:33.341Z,949.4
2022-09-06T19:43:38.516Z,949.4
2022-09-06T19:44:44.682Z,949.4
2022-09-06T19:45:50.861Z,949.4
2022-09-06T19:46:57.030Z,949.4
2022-09-06T19:48:03.197Z,949.4
2022-09-06T19:49:09.368Z,949.4
2022-09-06T19:50:15.518Z,949.4
2022-09-06T19:51:20.736Z,949.4
2022-09-06T19:52:25.914Z,949.4
2022-09-06T19:53:31.092Z,949.4
2022-09-06T19:54:36.296Z,949.4
2022-09-06T19:55:42.461Z,949.4
2022-09-06T19:56:48.647Z,949.4
2022-09-06T19:57:53.834Z,949.3
2022-09-06T19:58:59.007Z,949.3
2022-09-06T20:00:05.199Z,949.3
2022-09-06T20:01:11.354Z,949.3
2022-09-06T20:02:17.542Z,949.3
2022-09-06T20:03:23.696Z,949.3
2022-09-06T20:04:29.849Z,949.3
2022-09-06T20:05:36.041Z,949.3
2022-09-06T20:06:42.197Z,949.3
2022-09-06T20:07:48.355Z,949.2
2022-09-06T20:08:54.536Z,949.3
2022-09-06T20:10:00.698Z,949.3
2022-09-06T20:11:06.873Z,949.3
2022-09-06T20:12:13.045Z,949.3
2022-09-06T20:13:18.234Z,949.2
2022-09-06T20:14:24.406Z,949.2
2022-09-06T20:15:30.584Z,949.2
2022-09-06T20:16:36.752Z,949.2
2022-09-06T20:17:42.905Z,949.2
2022-09-06T20:18:49.082Z,949.2
2022-09-06T20:19:55.240Z,949.1
2022-09-06T20:21:00.449Z,949.1
2022-09-06T20:22:05.661Z,949.1
2022-09-06T20:23:10.852Z,949.1
2022-09-06T20:24:15.999Z,949.1
2022-09-06T20:25:22.169Z,949.2
2022-09-06T20:26:28.352Z,949.2
2022-09-06T20:27:34.516Z,949.2
2022-09-06T20:28:40.686Z,949.2
2022-09-06T20:29:46.859Z,949.1
2022-09-06T20:30:53.034Z,949.1
2022-09-06T20:31:59.220Z,949.1
2022-09-06T20:33:05.364Z,949
2022-09-06T20:34:11.553Z,949
2022-09-06T20:35:17.713Z,949
2022-09-06T20:36:23.875Z,949
2022-09-06T20:37:30.047Z,949
2022-09-06T20:38:35.219Z,949
2022-09-06T20:39:41.446Z,949
2022-09-06T20:40:47.566Z,949
2022-09-06T20:41:53.729Z,949
2022-09-06T20:42:59.894Z,949
2022-09-06T20:44:06.063Z,949.1
2022-09-06T20:45:12.249Z,949.1
2022-09-06T20:46:17.445Z,949.1
2022-09-06T20:47:22.626Z,949.2
2022-09-06T20:48:27.819Z,949.2
2022-09-06T20:49:33.010Z,949.2
2022-09-06T20:50:39.159Z,949.2
2022-09-06T20:51:45.341Z,949.1
2022-09-06T20:52:51.520Z,949.2
2022-09-06T20:53:57.675Z,949.2
2022-09-06T20:55:03.843Z,949.2
2022-09-06T20:56:10.027Z,949.2
2022-09-06T20:57:16.190Z,949.2
2022-09-06T20:58:22.363Z,949.2
2022-09-06T20:59:28.529Z,949.2
2022-09-06T21:00:34.711Z,949.2
2022-09-06T21:01:40.864Z,949.2
2022-09-06T21:02:47.033Z,949.1
2022-09-06T21:03:52.223Z,949.1
2022-09-06T21:04:58.380Z,949.1
2022-09-06T21:06:03.581Z,949.1
2022-09-06T21:07:08.773Z,949.1
2022-09-06T21:08:13.956Z,949.1
2022-09-06T21:09:19.153Z,949.1
2022-09-06T21:10:25.313Z,949
2022-09-06T21:11:31.493Z,949.1
2022-09-06T21:12:37.656Z,949.1
2022-09-06T21:13:43.830Z,949
2022-09-06T21:14:50.012Z,949
2022-09-06T21:15:56.169Z,949